createdAt,value
2023-03-24T00:02:14.165Z,8.25
2023-03-24T00:04:42.861Z,6.38
2023-03-24T00:07:15.148Z,7.68
2023-03-24T00:09:44.161Z,9.57
2023-03-24T00:12:14.138Z,11.23
2023-03-24T00:14:42.542Z,11.07
2023-03-24T00:17:12.934Z,31.55
2023-03-24T00:19:41.761Z,13.95
2023-03-24T00:22:14.493Z,10.55
2023-03-24T00:24:46.516Z,16.05
2023-03-24T00:27:15.653Z,28.67
2023-03-24T00:29:44.385Z,24.35
2023-03-24T00:32:13.031Z,14.88
2023-03-24T00:34:43.414Z,11.18
2023-03-24T00:37:12.065Z,11.68
2023-03-24T00:39:42.679Z,12.70
2023-03-24T00:42:11.382Z,10.00
2023-03-24T00:44:39.780Z,9.38
2023-03-24T00:47:08.447Z,9.15
2023-03-24T00:49:42.825Z,7.43
2023-03-24T00:52:14.711Z,7.93
2023-03-24T00:54:43.593Z,17.05
2023-03-24T00:57:13.148Z,8.15
2023-03-24T00:59:48.727Z,15.75
2023-03-24T01:02:22.531Z,10.82
2023-03-24T01:04:56.532Z,9.57
2023-03-24T01:07:26.141Z,32.85
2023-03-24T01:09:58.199Z,11.75
2023-03-24T01:12:34.409Z,10.07
2023-03-24T01:15:05.606Z,8.38
2023-03-24T01:17:34.914Z,8.55
2023-03-24T01:20:11.775Z,7.47
2023-03-24T01:22:44.867Z,10.75
2023-03-24T01:25:16.709Z,11.48
2023-03-24T01:27:46.032Z,12.75
2023-03-24T01:30:16.691Z,12.70
2023-03-24T01:32:45.557Z,20.42
2023-03-24T01:35:14.113Z,19.10
2023-03-24T01:37:42.860Z,10.30
2023-03-24T01:40:15.514Z,13.45
2023-03-24T01:42:44.214Z,11.75
2023-03-24T01:45:31.588Z,11.00
2023-03-24T01:48:00.745Z,13.65
2023-03-24T01:50:29.996Z,19.42
2023-03-24T01:52:59.877Z,17.38
2023-03-24T01:55:29.925Z,15.02
2023-03-24T01:58:01.997Z,13.13
2023-03-24T02:00:42.245Z,23.60
2023-03-24T02:03:34.209Z,14.40
2023-03-24T02:06:03.656Z,10.60
2023-03-24T02:08:44.779Z,9.63
2023-03-24T02:11:13.319Z,9.45
2023-03-24T02:13:50.981Z,10.50
2023-03-24T02:16:38.371Z,9.95
2023-03-24T02:19:38.537Z,10.30
2023-03-24T02:22:21.536Z,10.82
2023-03-24T02:25:02.166Z,10.82
2023-03-24T02:28:09.574Z,10.55
2023-03-24T02:30:47.245Z,11.60
2023-03-24T02:33:36.452Z,11.15
2023-03-24T02:36:37.179Z,10.05
2023-03-24T02:39:23.567Z,9.70
2023-03-24T02:41:52.403Z,10.27
2023-03-24T02:44:42.228Z,9.30
2023-03-24T02:47:24.366Z,9.38
2023-03-24T02:50:05.126Z,10.73
2023-03-24T02:52:34.127Z,9.98
2023-03-24T02:55:19.862Z,10.52
2023-03-24T02:57:48.573Z,10.15
2023-03-24T03:01:10.578Z,10.07
2023-03-24T03:04:33.750Z,10.45
2023-03-24T03:07:10.185Z,10.80
2023-03-24T03:09:47.651Z,11.35
2023-03-24T03:12:19.559Z,10.13
2023-03-24T03:14:54.549Z,10.10
2023-03-24T03:17:31.175Z,9.65
2023-03-24T03:20:14.885Z,11.32
2023-03-24T03:22:53.851Z,10.93
2023-03-24T03:25:26.762Z,10.70
2023-03-24T03:28:00.146Z,10.98
2023-03-24T03:30:40.520Z,10.70
2023-03-24T03:33:25.302Z,10.20
2023-03-24T03:36:28.065Z,10.07
2023-03-24T03:39:21.628Z,9.95
2023-03-24T03:41:50.639Z,9.95
2023-03-24T03:44:19.069Z,10.60
2023-03-24T03:46:47.785Z,10.18
2023-03-24T03:49:23.482Z,10.75
2023-03-24T03:51:52.719Z,11.05
2023-03-24T03:54:21.410Z,10.38
2023-03-24T03:56:50.743Z,11.23
2023-03-24T03:59:34.626Z,11.00
2023-03-24T04:02:22.229Z,11.60
2023-03-24T04:05:14.433Z,12.27
2023-03-24T04:08:13.831Z,12.23
2023-03-24T04:11:47.036Z,11.55
2023-03-24T04:15:12.589Z,14.13
2023-03-24T04:17:59.079Z,15.88
2023-03-24T04:21:42.528Z,16.63
2023-03-24T04:24:35.235Z,17.52
2023-03-24T04:27:17.608Z,17.40
2023-03-24T04:29:46.744Z,18.38
2023-03-24T04:32:32.573Z,15.95
2023-03-24T04:38:17.325Z,16.27
2023-03-24T04:40:52.466Z,16.63
2023-03-24T04:43:25.037Z,15.65
2023-03-24T04:45:58.064Z,15.70
2023-03-24T04:48:40.720Z,15.80
2023-03-24T04:51:18.012Z,17.08
2023-03-24T04:54:13.167Z,16.80
2023-03-24T04:56:48.059Z,14.50
2023-03-24T04:59:24.057Z,13.65
2023-03-24T05:01:52.422Z,14.82
2023-03-24T05:04:25.660Z,14.10
2023-03-24T05:06:55.195Z,15.18
2023-03-24T05:09:27.236Z,13.93
2023-03-24T05:11:55.616Z,12.77
2023-03-24T05:14:30.413Z,11.45
2023-03-24T05:16:59.584Z,12.02
2023-03-24T05:19:28.168Z,12.00
2023-03-24T05:21:57.305Z,12.48
2023-03-24T05:24:26.095Z,11.93
2023-03-24T05:26:54.489Z,12.40
2023-03-24T05:29:23.365Z,13.88
2023-03-24T05:31:51.708Z,14.82
2023-03-24T05:34:23.132Z,12.45
2023-03-24T05:37:12.230Z,12.02
2023-03-24T05:39:41.226Z,12.52
2023-03-24T05:42:18.665Z,18.45
2023-03-24T05:44:47.808Z,22.13
2023-03-24T05:47:24.152Z,22.08
2023-03-24T05:49:53.379Z,22.98
2023-03-24T05:52:22.593Z,21.80
2023-03-24T05:55:00.043Z,29.60
2023-03-24T05:57:30.686Z,39.08
2023-03-24T06:00:23.635Z,29.65
2023-03-24T06:03:02.930Z,19.60
2023-03-24T06:05:52.809Z,19.08
2023-03-24T06:08:20.897Z,19.10
2023-03-24T06:10:49.779Z,23.65
2023-03-24T06:13:18.058Z,36.63
2023-03-24T06:15:48.710Z,31.63
2023-03-24T06:18:35.313Z,39.22
2023-03-24T06:21:13.415Z,17.55
2023-03-24T06:23:43.512Z,15.20
2023-03-24T06:26:15.160Z,16.95
2023-03-24T06:28:54.642Z,14.95
2023-03-24T06:31:27.848Z,15.27
2023-03-24T06:33:56.237Z,12.98
2023-03-24T06:36:25.846Z,19.13
2023-03-24T06:38:54.636Z,15.10
2023-03-24T06:41:23.989Z,14.02
2023-03-24T06:44:02.063Z,16.40
2023-03-24T06:46:30.977Z,19.60
2023-03-24T06:49:00.010Z,12.00
2023-03-24T06:51:28.407Z,13.02
2023-03-24T06:53:56.586Z,14.00
2023-03-24T06:56:25.344Z,13.60
2023-03-24T06:58:57.954Z,9.82
2023-03-24T07:01:36.459Z,13.48
2023-03-24T07:04:18.953Z,17.02
2023-03-24T07:07:17.538Z,14.57
2023-03-24T07:09:45.494Z,11.00
2023-03-24T07:12:14.898Z,12.85
2023-03-24T07:14:44.234Z,13.48
2023-03-24T07:17:13.866Z,11.32
2023-03-24T07:19:51.509Z,9.10
2023-03-24T07:22:38.764Z,8.70
2023-03-24T07:25:25.759Z,10.85
2023-03-24T07:28:12.762Z,9.30
2023-03-24T07:30:41.340Z,8.98
2023-03-24T07:33:12.849Z,11.07
2023-03-24T07:35:44.596Z,6.97
2023-03-24T07:38:13.527Z,6.00
2023-03-24T07:40:41.658Z,6.50
2023-03-24T07:43:10.044Z,8.00
2023-03-24T07:45:54.905Z,14.85
2023-03-24T07:48:23.399Z,8.57
2023-03-24T07:50:53.418Z,6.70
2023-03-24T07:53:45.756Z,6.85
2023-03-24T07:56:21.580Z,8.02
2023-03-24T07:58:57.229Z,14.43
2023-03-24T08:01:33.263Z,22.52
2023-03-24T08:04:06.944Z,8.95
2023-03-24T08:06:54.308Z,17.52
2023-03-24T08:09:24.298Z,13.35
2023-03-24T08:11:52.369Z,6.45
2023-03-24T08:14:21.312Z,5.93
2023-03-24T08:16:50.119Z,5.90
2023-03-24T08:19:18.793Z,9.05
2023-03-24T08:21:47.174Z,11.90
2023-03-24T08:24:15.779Z,13.48
2023-03-24T08:26:46.900Z,9.95
2023-03-24T08:29:15.165Z,9.60
2023-03-24T08:31:43.215Z,6.30
2023-03-24T08:34:11.938Z,7.43
2023-03-24T08:36:41.604Z,10.23
2023-03-24T08:39:10.123Z,6.95
2023-03-24T08:41:38.100Z,7.05
2023-03-24T08:44:07.645Z,6.45
2023-03-24T08:46:35.921Z,5.68
2023-03-24T08:49:06.468Z,6.10
2023-03-24T08:51:34.872Z,6.25
2023-03-24T08:54:03.969Z,5.70
2023-03-24T08:56:32.049Z,6.60
2023-03-24T08:59:00.381Z,6.65
2023-03-24T09:01:28.583Z,6.85
2023-03-24T09:03:57.551Z,7.55
2023-03-24T09:06:27.399Z,6.80
2023-03-24T09:08:55.715Z,7.13
2023-03-24T09:11:23.914Z,6.50
2023-03-24T09:13:52.590Z,11.38
2023-03-24T09:16:20.655Z,7.63
2023-03-24T09:18:49.033Z,7.28
2023-03-24T09:21:17.284Z,9.57
2023-03-24T09:23:46.049Z,20.50
2023-03-24T09:26:14.175Z,10.65
2023-03-24T09:28:42.466Z,8.20
2023-03-24T09:31:12.080Z,10.65
2023-03-24T09:33:40.789Z,7.18
2023-03-24T09:36:10.120Z,8.80
2023-03-24T09:38:38.513Z,7.07
2023-03-24T09:41:18.780Z,8.63
2023-03-24T09:43:57.127Z,8.55
2023-03-24T09:46:30.692Z,8.32
2023-03-24T09:48:59.395Z,8.70
2023-03-24T09:51:38.380Z,8.90
2023-03-24T09:54:43.251Z,9.25
2023-03-24T09:57:23.879Z,8.45
2023-03-24T09:59:52.419Z,7.43
2023-03-24T10:02:22.493Z,6.88
2023-03-24T10:04:51.157Z,7.03
2023-03-24T10:07:51.683Z,8.95
2023-03-24T10:11:01.402Z,5.57
2023-03-24T10:13:51.497Z,5.53
2023-03-24T10:16:20.565Z,5.75
2023-03-24T10:19:12.761Z,6.18
2023-03-24T10:21:45.154Z,5.70
2023-03-24T10:24:24.488Z,4.68
2023-03-24T10:27:00.698Z,5.63
2023-03-24T10:29:34.774Z,5.28
2023-03-24T10:32:22.584Z,4.78
2023-03-24T10:35:07.650Z,5.70
2023-03-24T10:37:37.302Z,4.68
2023-03-24T10:40:18.304Z,4.80
2023-03-24T10:42:49.904Z,4.40
2023-03-24T10:45:38.326Z,4.93
2023-03-24T10:48:07.561Z,4.72
2023-03-24T10:50:36.187Z,4.90
2023-03-24T10:53:22.061Z,4.50
2023-03-24T10:55:50.784Z,4.72
2023-03-24T10:58:38.264Z,4.40
2023-03-24T11:01:24.829Z,4.20
2023-03-24T11:03:59.938Z,4.20
2023-03-24T11:06:27.965Z,5.37
2023-03-24T11:09:19.815Z,8.13
2023-03-24T11:11:48.517Z,5.50
2023-03-24T11:14:25.662Z,4.93
2023-03-24T11:17:12.727Z,4.32
2023-03-24T11:19:51.400Z,5.40
2023-03-24T11:22:20.211Z,5.03
2023-03-24T11:24:55.272Z,7.13
2023-03-24T11:27:23.375Z,11.52
2023-03-24T11:29:55.627Z,5.75
2023-03-24T11:32:29.912Z,3.80
2023-03-24T11:35:07.811Z,4.90
2023-03-24T11:37:37.718Z,6.95
2023-03-24T11:40:25.888Z,7.13
2023-03-24T11:42:58.250Z,9.10
2023-03-24T11:45:40.847Z,7.40
2023-03-24T11:48:30.389Z,5.03
2023-03-24T11:51:00.237Z,3.72
2023-03-24T11:53:42.706Z,5.03
2023-03-24T11:56:26.290Z,4.05
2023-03-24T11:59:01.878Z,5.68
2023-03-24T12:01:42.718Z,5.00
2023-03-24T12:04:47.585Z,4.43
2023-03-24T12:07:54.378Z,4.40
2023-03-24T12:10:33.226Z,3.72
2023-03-24T12:13:22.187Z,2.80
2023-03-24T12:16:46.269Z,3.90
2023-03-24T12:19:39.137Z,7.30
2023-03-24T12:22:08.129Z,4.07
2023-03-24T12:25:14.110Z,4.50
2023-03-24T12:28:02.500Z,3.08
2023-03-24T12:31:09.474Z,3.80
2023-03-24T12:34:34.882Z,3.80
2023-03-24T12:37:22.474Z,3.20
2023-03-24T12:40:10.487Z,4.22
2023-03-24T12:42:42.373Z,3.83
2023-03-24T12:45:41.303Z,3.20
2023-03-24T12:48:29.296Z,3.80
2023-03-24T12:51:39.420Z,3.90
2023-03-24T12:54:10.482Z,3.20
2023-03-24T12:56:44.980Z,4.40
2023-03-24T12:59:22.111Z,6.05
2023-03-24T13:02:00.850Z,5.60
2023-03-24T13:04:38.036Z,9.20
2023-03-24T13:07:12.301Z,5.60
2023-03-24T13:09:57.206Z,4.22
2023-03-24T13:12:31.685Z,4.53
2023-03-24T13:15:24.728Z,3.50
2023-03-24T13:18:11.779Z,2.92
2023-03-24T13:20:47.127Z,4.28
2023-03-24T13:23:22.008Z,3.67
2023-03-24T13:26:09.111Z,3.30
2023-03-24T13:29:00.831Z,3.25
2023-03-24T13:31:35.527Z,3.47
2023-03-24T13:34:05.584Z,3.60
2023-03-24T13:36:50.183Z,4.63
2023-03-24T13:39:23.285Z,4.50
2023-03-24T13:41:54.703Z,3.63
2023-03-24T13:44:24.947Z,3.28
2023-03-24T13:47:23.728Z,4.15
2023-03-24T13:50:05.367Z,4.30
2023-03-24T13:52:36.763Z,6.35
2023-03-24T13:55:14.308Z,6.35
2023-03-24T13:58:16.043Z,7.20
2023-03-24T14:01:06.854Z,4.65
2023-03-24T14:04:14.176Z,7.05
2023-03-24T14:09:35.455Z,7.88
2023-03-24T14:12:05.021Z,6.50
2023-03-24T14:15:11.916Z,6.90
2023-03-24T14:17:45.041Z,8.45
2023-03-24T14:20:26.410Z,5.57
2023-03-24T14:22:55.102Z,5.55
2023-03-24T14:25:29.390Z,5.70
2023-03-24T14:28:22.703Z,6.18
2023-03-24T14:31:03.717Z,7.95
2023-03-24T14:33:32.362Z,7.05
2023-03-24T14:36:07.152Z,7.88
2023-03-24T14:38:42.214Z,5.97
2023-03-24T14:41:20.581Z,6.97
2023-03-24T14:43:49.075Z,10.60
2023-03-24T14:46:20.094Z,5.40
2023-03-24T14:49:23.637Z,5.50
2023-03-24T14:52:01.004Z,4.22
2023-03-24T14:54:50.476Z,4.85
2023-03-24T14:57:39.777Z,5.22
2023-03-24T15:00:51.757Z,10.52
2023-03-24T15:03:51.581Z,8.57
2023-03-24T15:06:25.221Z,10.30
2023-03-24T15:08:58.713Z,8.93
2023-03-24T15:11:35.823Z,11.27
2023-03-24T15:14:13.958Z,14.68
2023-03-24T15:16:43.146Z,12.98
2023-03-24T15:19:21.700Z,11.82
2023-03-24T15:21:57.826Z,10.90
2023-03-24T15:24:34.916Z,17.52
2023-03-24T15:27:06.992Z,25.10
2023-03-24T15:29:37.314Z,13.95
2023-03-24T15:32:06.963Z,18.33
2023-03-24T15:34:41.014Z,16.40
2023-03-24T15:37:21.928Z,12.50
2023-03-24T15:40:01.896Z,10.35
2023-03-24T15:42:44.013Z,9.43
2023-03-24T15:45:22.765Z,9.27
2023-03-24T15:47:53.632Z,10.32
2023-03-24T15:50:35.073Z,9.70
2023-03-24T15:53:14.299Z,11.73
2023-03-24T15:55:43.962Z,12.63
2023-03-24T15:58:32.425Z,15.40
2023-03-24T16:01:02.952Z,19.98
2023-03-24T16:03:34.126Z,18.30
2023-03-24T16:06:02.969Z,17.20
2023-03-24T16:08:38.980Z,14.15
2023-03-24T16:11:12.969Z,15.35
2023-03-24T16:13:44.556Z,20.25
2023-03-24T16:16:16.018Z,19.25
2023-03-24T16:18:47.409Z,17.65
2023-03-24T16:21:20.505Z,16.30
2023-03-24T16:23:50.473Z,16.95
2023-03-24T16:26:26.410Z,22.88
2023-03-24T16:29:00.351Z,23.55
2023-03-24T16:31:31.089Z,18.70
2023-03-24T16:33:59.660Z,21.52
2023-03-24T16:36:28.076Z,21.45
2023-03-24T16:38:58.354Z,29.80
2023-03-24T16:41:26.573Z,13.25
2023-03-24T16:43:55.463Z,22.73
2023-03-24T16:46:23.781Z,35.28
2023-03-24T16:48:54.855Z,21.58
2023-03-24T16:51:25.673Z,37.47
2023-03-24T16:53:54.201Z,32.88
2023-03-24T16:56:23.671Z,69.22
2023-03-24T16:58:56.570Z,89.15
2023-03-24T17:01:35.914Z,147.07
2023-03-24T17:04:10.390Z,125.05
2023-03-24T17:06:42.766Z,127.32
2023-03-24T17:09:12.711Z,88.53
2023-03-24T17:11:48.386Z,33.40
2023-03-24T17:14:17.556Z,13.05
2023-03-24T17:16:49.341Z,10.82
2023-03-24T17:19:20.259Z,10.77
2023-03-24T17:21:58.023Z,14.07
2023-03-24T17:24:28.750Z,12.50
2023-03-24T17:26:56.895Z,24.92
2023-03-24T17:29:25.769Z,29.75
2023-03-24T17:31:54.540Z,41.85
2023-03-24T17:34:22.840Z,69.13
2023-03-24T17:36:51.771Z,63.58
2023-03-24T17:39:21.924Z,70.03
2023-03-24T17:41:50.438Z,67.18
2023-03-24T17:44:19.149Z,60.50
2023-03-24T17:46:47.124Z,69.38
2023-03-24T17:49:16.109Z,44.60
2023-03-24T17:51:44.417Z,49.53
2023-03-24T17:54:13.957Z,57.30
2023-03-24T17:56:42.312Z,34.83
2023-03-24T17:59:11.111Z,38.25
2023-03-24T18:01:40.474Z,96.93
2023-03-24T18:04:09.318Z,89.40
2023-03-24T18:06:38.663Z,73.32
2023-03-24T18:09:07.578Z,56.08
2023-03-24T18:11:36.287Z,50.50
2023-03-24T18:14:04.439Z,36.60
2023-03-24T18:16:35.177Z,35.15
2023-03-24T18:19:04.156Z,26.27
2023-03-24T18:21:32.569Z,26.52
2023-03-24T18:24:01.217Z,18.23
2023-03-24T18:26:29.891Z,17.33
2023-03-24T18:28:59.146Z,18.70
2023-03-24T18:31:32.104Z,19.88
2023-03-24T18:34:00.725Z,24.90
2023-03-24T18:36:29.188Z,25.30
2023-03-24T18:38:59.696Z,30.27
2023-03-24T18:41:30.046Z,29.13
2023-03-24T18:43:59.621Z,63.20
2023-03-24T18:46:28.592Z,79.22
2023-03-24T18:48:57.159Z,29.20
2023-03-24T18:51:26.454Z,17.23
2023-03-24T18:53:55.221Z,22.65
2023-03-24T18:56:24.257Z,9.40
2023-03-24T18:58:53.155Z,8.63
2023-03-24T19:01:24.931Z,15.27
2023-03-24T19:03:53.733Z,9.57
2023-03-24T19:06:26.290Z,9.07
2023-03-24T19:08:55.058Z,14.05
2023-03-24T19:11:23.585Z,19.42
2023-03-24T19:13:52.573Z,23.23
2023-03-24T19:16:21.263Z,23.45
2023-03-24T19:18:50.960Z,14.15
2023-03-24T19:21:23.031Z,11.35
2023-03-24T19:23:54.271Z,13.45
2023-03-24T19:26:22.681Z,21.30
2023-03-24T19:28:51.382Z,15.02
2023-03-24T19:31:20.820Z,11.85
2023-03-24T19:33:51.664Z,7.60
2023-03-24T19:36:20.296Z,6.10
2023-03-24T19:38:48.929Z,5.15
2023-03-24T19:41:19.164Z,6.95
2023-03-24T19:43:47.781Z,60.53
2023-03-24T19:46:20.933Z,18.25
2023-03-24T19:48:49.352Z,6.72
2023-03-24T19:51:18.722Z,6.72
2023-03-24T19:53:47.376Z,8.50
2023-03-24T19:56:17.495Z,14.38
2023-03-24T19:58:46.315Z,13.82
2023-03-24T20:01:14.296Z,42.13
2023-03-24T20:03:43.023Z,117.20
2023-03-24T20:06:11.806Z,42.45
2023-03-24T20:08:40.440Z,27.20
2023-03-24T20:11:12.284Z,20.02
2023-03-24T20:13:40.897Z,12.63
2023-03-24T20:16:09.073Z,14.18
2023-03-24T20:18:39.171Z,32.20
2023-03-24T20:21:08.527Z,17.33
2023-03-24T20:23:37.104Z,37.60
2023-03-24T20:26:05.533Z,26.67
2023-03-24T20:28:34.009Z,23.02
2023-03-24T20:31:02.831Z,22.42
2023-03-24T20:33:32.236Z,21.02
2023-03-24T20:36:01.170Z,22.17
2023-03-24T20:38:30.063Z,20.63
2023-03-24T20:41:06.070Z,21.60
2023-03-24T20:43:36.303Z,19.88
2023-03-24T20:46:06.545Z,17.50
2023-03-24T20:48:35.709Z,10.15
2023-03-24T20:51:04.283Z,16.73
2023-03-24T20:53:33.177Z,35.20
2023-03-24T20:56:06.871Z,14.45
2023-03-24T20:58:37.884Z,19.77
2023-03-24T21:01:08.179Z,13.73
2023-03-24T21:03:37.107Z,25.33
2023-03-24T21:06:06.178Z,10.57
2023-03-24T21:08:34.765Z,16.83
2023-03-24T21:11:02.986Z,34.80
2023-03-24T21:13:37.333Z,12.93
2023-03-24T21:16:08.762Z,20.20
2023-03-24T21:18:38.175Z,25.88
2023-03-24T21:21:06.975Z,22.27
2023-03-24T21:23:39.241Z,30.15
2023-03-24T21:26:12.458Z,30.42
2023-03-24T21:28:41.327Z,16.25
2023-03-24T21:31:11.742Z,18.65
2023-03-24T21:33:40.978Z,18.00
2023-03-24T21:36:10.167Z,23.42
2023-03-24T21:38:39.204Z,21.92
2023-03-24T21:41:07.900Z,11.50
2023-03-24T21:43:37.345Z,15.40
2023-03-24T21:46:06.804Z,10.23
2023-03-24T21:48:40.274Z,12.05
2023-03-24T21:51:08.160Z,14.90
2023-03-24T21:53:36.743Z,20.17
2023-03-24T21:56:05.662Z,19.00
2023-03-24T21:58:34.865Z,27.30
2023-03-24T22:01:03.334Z,31.10
2023-03-24T22:03:34.577Z,25.13
2023-03-24T22:06:03.138Z,21.20
2023-03-24T22:08:31.877Z,16.33
2023-03-24T22:11:01.583Z,13.05
2023-03-24T22:13:31.353Z,11.50
2023-03-24T22:16:01.681Z,15.75
2023-03-24T22:18:32.725Z,17.50
2023-03-24T22:21:06.922Z,19.85
2023-03-24T22:23:40.565Z,16.92
2023-03-24T22:26:16.876Z,25.02
2023-03-24T22:28:45.354Z,13.95
2023-03-24T22:31:16.290Z,14.32
2023-03-24T22:33:45.259Z,17.70
2023-03-24T22:36:13.463Z,22.77
2023-03-24T22:38:42.505Z,23.27
2023-03-24T22:41:12.679Z,25.48
2023-03-24T22:43:42.071Z,20.63
2023-03-24T22:46:11.292Z,16.23
2023-03-24T22:48:40.105Z,16.13
2023-03-24T22:51:09.261Z,12.93
2023-03-24T22:53:37.759Z,10.43
2023-03-24T22:56:06.412Z,10.30
2023-03-24T22:58:35.815Z,10.00
2023-03-24T23:01:06.171Z,12.95
2023-03-24T23:03:34.973Z,14.05
2023-03-24T23:06:03.494Z,14.98
2023-03-24T23:08:33.519Z,12.55
2023-03-24T23:11:02.344Z,10.68
2023-03-24T23:13:30.973Z,11.32
2023-03-24T23:15:59.387Z,11.25
2023-03-24T23:18:28.054Z,10.45
2023-03-24T23:21:07.264Z,10.45
2023-03-24T23:23:36.448Z,9.82
2023-03-24T23:26:05.804Z,10.13
2023-03-24T23:28:34.672Z,11.32
2023-03-24T23:31:03.097Z,19.05
2023-03-24T23:33:31.758Z,26.48
2023-03-24T23:35:59.872Z,23.20
2023-03-24T23:38:28.574Z,31.95
2023-03-24T23:40:56.580Z,32.30
2023-03-24T23:43:24.991Z,29.80
2023-03-24T23:45:57.221Z,19.17
2023-03-24T23:48:26.138Z,22.48
2023-03-24T23:50:58.752Z,18.38
2023-03-24T23:53:27.554Z,22.27
2023-03-24T23:55:57.160Z,17.27
2023-03-24T23:58:25.676Z,16.13
